Time;durP1;ratioP1;P1;durP2;ratioP2;P2;SDS_P1;SDS_P2;PMS_P1;PMS_P2;Temp;Humidity;BMP_temperature;BMP_pressure;BME280_temperature;BME280_humidity;BME280_pressure;Samples;Min_cycle;Max_cycle;Signal;HPM_P1;HPM_P2
2023/05/14 00:02:09;;;;;;;;;;;13.00;99.90;;;;;;5053397;28;19932;-62
2023/05/14 00:04:35;;;;;;;;;;;13.00;99.90;;;;;;5052755;28;19917;-62
2023/05/14 00:07:00;;;;;;;;;;;13.00;99.90;;;;;;5052325;28;19939;-62
2023/05/14 00:09:26;;;;;;;;;;;13.00;99.90;;;;;;5050499;28;19917;-62
2023/05/14 00:11:51;;;;;;;;;;;13.00;99.90;;;;;;5052284;28;19940;-62
2023/05/14 00:14:17;;;;;;;;;;;13.10;99.90;;;;;;5052373;28;19962;-62
2023/05/14 00:16:42;;;;;;;;;;;13.00;99.90;;;;;;5052209;28;20579;-62
2023/05/14 00:19:08;;;;;;;;;;;13.00;99.90;;;;;;5052044;28;19916;-63
2023/05/14 00:21:33;;;;;;;;;;;13.00;99.90;;;;;;5052393;28;19924;-63
2023/05/14 00:23:59;;;;;;;;;;;13.00;99.90;;;;;;5052142;28;19939;-62
2023/05/14 00:26:24;;;;;;;;;;;13.00;99.90;;;;;;5047695;28;20309;-62
2023/05/14 00:28:50;;;;;;;;;;;13.00;99.90;;;;;;5050861;28;20266;-62
2023/05/14 00:31:15;;;;;;;;;;;13.00;99.90;;;;;;5050911;28;20456;-62
2023/05/14 00:33:41;;;;;;;;;;;13.00;99.90;;;;;;5051051;28;19924;-61
2023/05/14 00:36:07;;;;;;;;;;;13.00;99.90;;;;;;5036022;28;20473;-62
2023/05/14 00:38:32;;;;;;;;;;;13.00;99.90;;;;;;5037271;28;19917;-61
2023/05/14 00:40:58;;;;;;;;;;;13.00;99.90;;;;;;5046734;28;20352;-62
2023/05/14 00:43:24;;;;;;;;;;;13.00;99.90;;;;;;5051285;28;20328;-61
2023/05/14 00:45:52;;;;;;;;;;;12.90;99.90;;;;;;5054192;28;20407;-61
2023/05/14 00:48:21;;;;;;;;;;;12.80;99.90;;;;;;5055791;28;19924;-62
2023/05/14 00:50:48;;;;;;;;;;;12.90;99.90;;;;;;5052277;28;20304;-62
2023/05/14 00:53:13;;;;;;;;;;;12.90;99.90;;;;;;5051453;28;19920;-62
2023/05/14 00:55:40;;;;;;;;;;;12.80;99.90;;;;;;5051816;28;19916;-62
2023/05/14 00:58:06;;;;;;;;;;;12.80;99.90;;;;;;5050081;28;19932;-62
2023/05/14 01:00:32;;;;;;;;;;;12.80;99.90;;;;;;5051640;28;19920;-62
2023/05/14 01:03:00;;;;;;;;;;;12.70;99.90;;;;;;5051732;28;19924;-61
2023/05/14 01:05:28;;;;;;;;;;;12.70;99.90;;;;;;5050237;28;19917;-63
2023/05/14 01:08:05;;;;;;;;;;;12.70;99.90;;;;;;5050812;28;20200;-62
2023/05/14 01:10:34;;;;;;;;;;;12.60;99.90;;;;;;5051801;28;19920;-62
2023/05/14 01:13:07;;;;;;;;;;;12.60;99.90;;;;;;5049527;28;19928;-61
2023/05/14 01:15:33;;;;;;;;;;;12.60;99.90;;;;;;5051928;28;19924;-63
2023/05/14 01:18:02;;;;;;;;;;;12.60;99.90;;;;;;5050523;28;19996;-62
2023/05/14 01:20:27;;;;;;;;;;;12.60;99.90;;;;;;5051590;28;19920;-62
2023/05/14 01:22:53;;;;;;;;;;;12.60;99.90;;;;;;5050900;28;19939;-61
2023/05/14 01:25:18;;;;;;;;;;;12.60;99.90;;;;;;5050177;28;19920;-62
2023/05/14 01:28:05;;;;;;;;;;;12.60;99.90;;;;;;5050306;28;20184;-61
2023/05/14 01:30:50;;;;;;;;;;;12.50;99.90;;;;;;5051295;28;19927;-61
2023/05/14 01:33:19;;;;;;;;;;;12.50;99.90;;;;;;5050190;28;19920;-62
2023/05/14 01:35:45;;;;;;;;;;;12.40;99.90;;;;;;5050903;28;19940;-62
2023/05/14 01:38:12;;;;;;;;;;;12.40;99.90;;;;;;5049834;28;20460;-62
2023/05/14 01:40:38;;;;;;;;;;;12.40;99.90;;;;;;5050587;28;19999;-62
2023/05/14 01:43:04;;;;;;;;;;;12.40;99.90;;;;;;5050117;28;19964;-62
2023/05/14 01:45:30;;;;;;;;;;;12.40;99.90;;;;;;5050391;28;19940;-62
2023/05/14 01:47:55;;;;;;;;;;;12.30;99.90;;;;;;5049500;28;20374;-61
2023/05/14 01:50:21;;;;;;;;;;;12.30;99.90;;;;;;5049841;28;19928;-61
2023/05/14 01:52:47;;;;;;;;;;;12.30;99.90;;;;;;5050370;28;20018;-61
2023/05/14 01:55:13;;;;;;;;;;;12.20;99.90;;;;;;5049522;28;20034;-63
2023/05/14 01:57:38;;;;;;;;;;;12.20;99.90;;;;;;5049228;28;19917;-63
2023/05/14 02:00:04;;;;;;;;;;;12.20;99.90;;;;;;5050711;28;20189;-61
2023/05/14 02:02:30;;;;;;;;;;;12.20;99.90;;;;;;5050597;28;19991;-61
2023/05/14 02:04:55;;;;;;;;;;;12.20;99.90;;;;;;5048975;28;20007;-61
2023/05/14 02:07:21;;;;;;;;;;;12.20;99.90;;;;;;5049594;28;20003;-61
2023/05/14 02:09:46;;;;;;;;;;;12.10;99.90;;;;;;5048339;28;20490;-63
2023/05/14 02:12:12;;;;;;;;;;;12.10;99.90;;;;;;5050042;28;19956;-62
2023/05/14 02:14:37;;;;;;;;;;;12.10;99.90;;;;;;5048795;28;19917;-62
2023/05/14 02:17:03;;;;;;;;;;;12.10;99.90;;;;;;5049865;28;19963;-62
2023/05/14 02:19:29;;;;;;;;;;;12.10;99.90;;;;;;5049592;28;19916;-61
2023/05/14 02:21:54;;;;;;;;;;;12.00;99.90;;;;;;5049773;28;19932;-61
2023/05/14 02:24:20;;;;;;;;;;;12.00;99.90;;;;;;5049957;28;19920;-62
2023/05/14 02:26:45;;;;;;;;;;;12.00;99.90;;;;;;5049773;28;20310;-62
2023/05/14 02:29:11;;;;;;;;;;;12.00;99.90;;;;;;5048009;28;19927;-62
2023/05/14 02:31:36;;;;;;;;;;;11.90;99.90;;;;;;5050749;28;19977;-62
2023/05/14 02:34:03;;;;;;;;;;;11.90;99.90;;;;;;5049622;28;20308;-63
2023/05/14 02:36:28;;;;;;;;;;;11.90;99.90;;;;;;5048839;28;19917;-61
2023/05/14 02:38:54;;;;;;;;;;;11.80;99.90;;;;;;5048672;28;20064;-61
2023/05/14 02:41:20;;;;;;;;;;;11.80;99.90;;;;;;5050154;28;19916;-61
2023/05/14 02:43:45;;;;;;;;;;;11.70;99.90;;;;;;5049834;28;19920;-63
2023/05/14 02:46:11;;;;;;;;;;;11.80;99.90;;;;;;5049296;28;19982;-61
2023/05/14 02:48:36;;;;;;;;;;;11.70;99.90;;;;;;5049714;28;19923;-61
2023/05/14 02:51:02;;;;;;;;;;;11.70;99.90;;;;;;5049475;28;19921;-61
2023/05/14 02:53:27;;;;;;;;;;;11.60;99.90;;;;;;5049467;28;19925;-61
2023/05/14 02:55:53;;;;;;;;;;;11.60;99.90;;;;;;5054056;28;19921;-64
2023/05/14 02:58:18;;;;;;;;;;;11.60;99.90;;;;;;5051916;28;19925;-62
2023/05/14 03:00:44;;;;;;;;;;;11.50;99.90;;;;;;5053746;28;19960;-61
2023/05/14 03:03:09;;;;;;;;;;;11.50;99.90;;;;;;5052377;28;19928;-61
2023/05/14 03:05:35;;;;;;;;;;;11.50;99.90;;;;;;5053632;28;20011;-61
2023/05/14 03:08:01;;;;;;;;;;;11.50;99.90;;;;;;5052491;28;20304;-61
2023/05/14 03:10:26;;;;;;;;;;;11.40;99.90;;;;;;5053916;28;19975;-61
2023/05/14 03:12:52;;;;;;;;;;;11.40;99.90;;;;;;5053565;28;19928;-63
2023/05/14 03:15:17;;;;;;;;;;;11.40;99.90;;;;;;5051705;28;20392;-62
2023/05/14 03:17:43;;;;;;;;;;;11.30;99.90;;;;;;5052473;28;19921;-61
2023/05/14 03:20:09;;;;;;;;;;;11.30;99.90;;;;;;5052403;28;19917;-61
2023/05/14 03:22:35;;;;;;;;;;;11.30;99.90;;;;;;5056293;28;20339;-62
2023/05/14 03:25:00;;;;;;;;;;;11.30;99.90;;;;;;5058981;28;19916;-62
2023/05/14 03:27:26;;;;;;;;;;;11.20;99.90;;;;;;5053853;28;20278;-64
2023/05/14 03:29:51;;;;;;;;;;;11.20;99.90;;;;;;5053336;28;20020;-62
2023/05/14 03:32:17;;;;;;;;;;;11.20;99.90;;;;;;5053361;28;19921;-62
2023/05/14 03:34:43;;;;;;;;;;;11.20;99.90;;;;;;5051480;28;20348;-61
2023/05/14 03:37:09;;;;;;;;;;;11.10;99.90;;;;;;5052107;28;19920;-61
2023/05/14 03:39:35;;;;;;;;;;;11.10;99.90;;;;;;5052234;28;20373;-61
2023/05/14 03:42:00;;;;;;;;;;;11.10;99.90;;;;;;5052835;28;19927;-61
2023/05/14 03:44:26;;;;;;;;;;;11.10;99.90;;;;;;5052987;28;19923;-61
2023/05/14 03:46:51;;;;;;;;;;;11.10;99.90;;;;;;5053017;28;19939;-61
2023/05/14 03:49:17;;;;;;;;;;;11.10;99.90;;;;;;5052336;28;19960;-60
2023/05/14 03:51:43;;;;;;;;;;;11.10;99.90;;;;;;5052342;28;19963;-61
2023/05/14 03:54:08;;;;;;;;;;;11.10;99.90;;;;;;5053048;28;19927;-61
2023/05/14 03:56:34;;;;;;;;;;;11.10;99.90;;;;;;5052428;28;20175;-62
2023/05/14 03:58:59;;;;;;;;;;;11.10;99.90;;;;;;5051992;28;20304;-61
2023/05/14 04:01:25;;;;;;;;;;;11.10;99.90;;;;;;5051947;28;19917;-61
2023/05/14 04:03:50;;;;;;;;;;;11.10;99.90;;;;;;5046937;28;20373;-62
2023/05/14 04:06:16;;;;;;;;;;;11.10;99.90;;;;;;5045781;28;20371;-62
2023/05/14 04:08:41;;;;;;;;;;;11.10;99.90;;;;;;5050426;28;19920;-61
2023/05/14 04:11:07;;;;;;;;;;;11.10;99.90;;;;;;5035046;28;19978;-62
2023/05/14 04:13:32;;;;;;;;;;;11.10;99.90;;;;;;5051002;28;19920;-62
2023/05/14 04:15:58;;;;;;;;;;;11.10;99.90;;;;;;5052842;28;19917;-61
2023/05/14 04:18:24;;;;;;;;;;;11.10;99.90;;;;;;5051224;28;19920;-62
2023/05/14 04:20:49;;;;;;;;;;;11.00;99.90;;;;;;5052322;28;20244;-62
2023/05/14 04:23:15;;;;;;;;;;;11.00;99.90;;;;;;5051974;28;19917;-62
2023/05/14 04:25:40;;;;;;;;;;;11.00;99.90;;;;;;5052531;28;19917;-62
2023/05/14 04:28:06;;;;;;;;;;;11.00;99.90;;;;;;5051184;28;19916;-61
2023/05/14 04:30:31;;;;;;;;;;;11.00;99.90;;;;;;5052399;28;19962;-61
2023/05/14 04:32:57;;;;;;;;;;;11.00;99.90;;;;;;5052058;28;19987;-61
2023/05/14 04:35:23;;;;;;;;;;;10.90;99.90;;;;;;5051573;28;19916;-61
2023/05/14 04:37:48;;;;;;;;;;;10.90;99.90;;;;;;5050211;28;19984;-61
2023/05/14 04:40:15;;;;;;;;;;;10.90;99.90;;;;;;5051905;28;19940;-61
2023/05/14 04:42:41;;;;;;;;;;;10.90;99.90;;;;;;5051727;28;19924;-61
2023/05/14 04:45:07;;;;;;;;;;;10.90;99.90;;;;;;5051395;28;19916;-61
2023/05/14 04:47:33;;;;;;;;;;;10.90;99.90;;;;;;5032892;28;20062;-61
2023/05/14 04:49:59;;;;;;;;;;;11.00;99.90;;;;;;5051310;28;20297;-61
2023/05/14 04:52:24;;;;;;;;;;;10.90;99.90;;;;;;5051795;28;19928;-60
2023/05/14 04:54:50;;;;;;;;;;;10.90;99.90;;;;;;5050141;28;20338;-61
2023/05/14 04:57:15;;;;;;;;;;;10.90;99.90;;;;;;5051181;28;19916;-62
2023/05/14 04:59:41;;;;;;;;;;;11.00;99.90;;;;;;5051473;28;19921;-61
2023/05/14 05:02:07;;;;;;;;;;;11.00;99.90;;;;;;5051378;28;19924;-61
2023/05/14 05:04:32;;;;;;;;;;;11.10;99.90;;;;;;5051184;28;19962;-60
2023/05/14 05:06:58;;;;;;;;;;;11.20;99.90;;;;;;5050449;28;19929;-60
2023/05/14 05:09:23;;;;;;;;;;;11.20;99.90;;;;;;5051419;28;20007;-61
2023/05/14 05:11:49;;;;;;;;;;;11.30;99.90;;;;;;5051264;28;19960;-63
2023/05/14 05:14:14;;;;;;;;;;;11.30;99.90;;;;;;5051132;28;19925;-61
2023/05/14 05:16:40;;;;;;;;;;;11.40;99.90;;;;;;5050234;28;19920;-61
2023/05/14 05:19:05;;;;;;;;;;;11.50;99.90;;;;;;5046206;28;19916;-61
2023/05/14 05:21:31;;;;;;;;;;;11.50;99.90;;;;;;5042266;28;19929;-62
2023/05/14 05:23:56;;;;;;;;;;;11.60;99.90;;;;;;5042581;28;19921;-61
2023/05/14 05:26:22;;;;;;;;;;;11.60;99.90;;;;;;5048054;28;19917;-61
2023/05/14 05:28:47;;;;;;;;;;;11.70;99.90;;;;;;5041720;28;20451;-61
2023/05/14 05:31:13;;;;;;;;;;;11.70;99.90;;;;;;5038625;28;19999;-61
2023/05/14 05:33:38;;;;;;;;;;;11.80;99.90;;;;;;5050003;28;20318;-62
2023/05/14 05:36:04;;;;;;;;;;;11.90;99.90;;;;;;5050837;28;20296;-61
2023/05/14 05:38:29;;;;;;;;;;;12.00;99.90;;;;;;5046849;28;19970;-61
2023/05/14 05:40:55;;;;;;;;;;;12.00;99.90;;;;;;5049788;28;19986;-61
2023/05/14 05:43:21;;;;;;;;;;;12.10;99.90;;;;;;5045946;28;20024;-62
2023/05/14 05:45:46;;;;;;;;;;;12.20;99.90;;;;;;5044818;28;19943;-61
2023/05/14 05:48:12;;;;;;;;;;;12.30;99.90;;;;;;5047571;28;19923;-61
2023/05/14 05:50:37;;;;;;;;;;;12.30;99.90;;;;;;5048978;28;20398;-62
2023/05/14 05:53:03;;;;;;;;;;;12.50;99.90;;;;;;5049728;28;19920;-61
2023/05/14 05:55:29;;;;;;;;;;;12.50;99.90;;;;;;5041463;28;19932;-60
2023/05/14 05:57:54;;;;;;;;;;;12.60;99.90;;;;;;5047614;28;19988;-62
2023/05/14 06:00:20;;;;;;;;;;;12.70;99.90;;;;;;5050859;28;19924;-62
2023/05/14 06:02:45;;;;;;;;;;;12.80;99.90;;;;;;5055547;28;19956;-61
2023/05/14 06:05:11;;;;;;;;;;;12.80;99.90;;;;;;5047862;28;20302;-62
2023/05/14 06:07:37;;;;;;;;;;;13.00;99.90;;;;;;5045709;28;20373;-62
2023/05/14 06:10:02;;;;;;;;;;;13.00;99.90;;;;;;5048827;28;19917;-64
2023/05/14 06:12:28;;;;;;;;;;;13.10;99.90;;;;;;5050354;28;19920;-62
2023/05/14 06:14:54;;;;;;;;;;;13.10;99.90;;;;;;5048417;28;19917;-62
2023/05/14 06:17:20;;;;;;;;;;;13.10;99.90;;;;;;5049751;28;20305;-61
2023/05/14 06:19:45;;;;;;;;;;;13.20;99.90;;;;;;5049275;28;19921;-61
2023/05/14 06:22:11;;;;;;;;;;;13.20;99.90;;;;;;5050292;28;19920;-62
2023/05/14 06:24:37;;;;;;;;;;;13.20;99.90;;;;;;5048345;28;19917;-62
2023/05/14 06:27:02;;;;;;;;;;;13.30;99.90;;;;;;5049845;28;19924;-62
2023/05/14 06:29:28;;;;;;;;;;;13.40;99.90;;;;;;5047705;28;20356;-62
2023/05/14 06:31:53;;;;;;;;;;;13.40;99.90;;;;;;5050116;28;19920;-62
2023/05/14 06:34:19;;;;;;;;;;;13.50;99.90;;;;;;5049195;28;19925;-62
2023/05/14 06:36:44;;;;;;;;;;;13.60;99.90;;;;;;5046017;28;19917;-62
2023/05/14 06:39:11;;;;;;;;;;;13.60;99.90;;;;;;5042292;28;19920;-61
2023/05/14 06:41:36;;;;;;;;;;;13.80;99.90;;;;;;5048262;28;19947;-63
2023/05/14 06:44:02;;;;;;;;;;;13.90;99.90;;;;;;5049288;28;19916;-62
2023/05/14 06:46:28;;;;;;;;;;;13.90;99.90;;;;;;5049266;28;19916;-62
2023/05/14 06:48:53;;;;;;;;;;;14.00;99.90;;;;;;5048855;28;19932;-62
2023/05/14 06:51:19;;;;;;;;;;;14.20;99.90;;;;;;5048880;28;19927;-61
2023/05/14 06:53:45;;;;;;;;;;;14.30;99.90;;;;;;5048913;28;19928;-62
2023/05/14 06:56:12;;;;;;;;;;;14.50;99.90;;;;;;5031853;28;19917;-62
2023/05/14 06:58:37;;;;;;;;;;;14.60;99.90;;;;;;5035504;28;19916;-63
2023/05/14 07:01:03;;;;;;;;;;;14.70;99.90;;;;;;5049395;28;20420;-62
2023/05/14 07:03:29;;;;;;;;;;;14.70;99.90;;;;;;5047973;28;19940;-61
2023/05/14 07:05:54;;;;;;;;;;;14.80;99.90;;;;;;5049538;28;19917;-62
2023/05/14 07:08:20;;;;;;;;;;;14.90;99.90;;;;;;5048953;28;19917;-62
2023/05/14 07:10:45;;;;;;;;;;;14.90;99.90;;;;;;5047971;28;19924;-62
2023/05/14 07:13:11;;;;;;;;;;;15.00;99.90;;;;;;5048907;28;19928;-62
2023/05/14 07:15:36;;;;;;;;;;;15.10;99.90;;;;;;5049131;28;20371;-62
2023/05/14 07:18:02;;;;;;;;;;;15.20;99.90;;;;;;5048612;28;19921;-62
2023/05/14 07:20:27;;;;;;;;;;;15.30;99.90;;;;;;5048545;28;19925;-62
2023/05/14 07:22:53;;;;;;;;;;;15.40;99.90;;;;;;5049505;28;19916;-62
2023/05/14 07:25:18;;;;;;;;;;;15.50;99.90;;;;;;5048679;28;19920;-62
2023/05/14 07:27:44;;;;;;;;;;;15.70;99.90;;;;;;5047776;28;19917;-61
2023/05/14 07:30:09;;;;;;;;;;;15.90;99.90;;;;;;5048850;28;19982;-62
2023/05/14 07:32:35;;;;;;;;;;;16.00;99.90;;;;;;5047423;28;19928;-62
2023/05/14 07:35:00;;;;;;;;;;;16.10;99.90;;;;;;5049017;28;20015;-62
2023/05/14 07:37:26;;;;;;;;;;;16.20;99.90;;;;;;5048640;28;20008;-63
2023/05/14 07:39:52;;;;;;;;;;;16.40;99.90;;;;;;5049626;28;19917;-63
2023/05/14 07:42:18;;;;;;;;;;;16.40;99.90;;;;;;5053067;28;19963;-62
2023/05/14 07:44:43;;;;;;;;;;;16.60;99.90;;;;;;5052109;28;19924;-62
2023/05/14 07:47:09;;;;;;;;;;;16.70;99.90;;;;;;5052127;28;19927;-63
2023/05/14 07:49:35;;;;;;;;;;;16.80;99.90;;;;;;5052306;28;20316;-63
2023/05/14 07:52:00;;;;;;;;;;;16.80;99.90;;;;;;5050737;28;19924;-63
2023/05/14 07:54:26;;;;;;;;;;;16.90;99.90;;;;;;5052771;28;19929;-63
2023/05/14 07:56:52;;;;;;;;;;;17.00;99.90;;;;;;5042079;28;19917;-63
2023/05/14 07:59:17;;;;;;;;;;;17.00;99.90;;;;;;5044070;28;19925;-61
2023/05/14 08:01:43;;;;;;;;;;;17.10;99.90;;;;;;5050976;28;20356;-60
2023/05/14 08:04:10;;;;;;;;;;;17.20;99.90;;;;;;5052637;28;19917;-62
2023/05/14 08:06:36;;;;;;;;;;;17.30;99.90;;;;;;5045002;28;19979;-62
2023/05/14 08:09:04;;;;;;;;;;;17.40;99.90;;;;;;5032170;28;19956;-62
2023/05/14 08:11:29;;;;;;;;;;;17.50;99.90;;;;;;5046953;28;19916;-61
2023/05/14 08:13:56;;;;;;;;;;;17.60;99.90;;;;;;5050780;28;20063;-62
2023/05/14 08:16:22;;;;;;;;;;;17.70;99.90;;;;;;5051076;28;19932;-62
2023/05/14 08:18:47;;;;;;;;;;;17.80;99.90;;;;;;5051668;28;19943;-62
2023/05/14 08:21:13;;;;;;;;;;;17.90;99.90;;;;;;5050147;28;19921;-62
2023/05/14 08:23:39;;;;;;;;;;;18.00;99.90;;;;;;5052581;28;19924;-61
2023/05/14 08:26:04;;;;;;;;;;;18.00;99.90;;;;;;5051388;28;20418;-58
2023/05/14 08:28:30;;;;;;;;;;;17.90;99.90;;;;;;5050557;28;19916;-60
2023/05/14 08:30:55;;;;;;;;;;;17.90;99.90;;;;;;5050963;28;20430;-62
2023/05/14 08:33:21;;;;;;;;;;;18.00;99.90;;;;;;5051454;28;19979;-62
2023/05/14 08:35:46;;;;;;;;;;;18.00;99.90;;;;;;5052328;28;19982;-62
2023/05/14 08:38:12;;;;;;;;;;;18.00;99.90;;;;;;5053551;28;20436;-62
2023/05/14 08:40:38;;;;;;;;;;;18.00;99.90;;;;;;5057064;28;20393;-62
2023/05/14 08:43:05;;;;;;;;;;;18.00;99.90;;;;;;5051782;28;20558;-62
2023/05/14 08:45:33;;;;;;;;;;;18.00;99.90;;;;;;5052197;28;20606;-62
2023/05/14 08:48:00;;;;;;;;;;;18.00;99.90;;;;;;5049291;28;19916;-62
2023/05/14 08:50:26;;;;;;;;;;;18.10;99.90;;;;;;5052105;28;19917;-62
2023/05/14 08:52:52;;;;;;;;;;;18.10;99.90;;;;;;5050397;28;19925;-62
2023/05/14 08:55:18;;;;;;;;;;;18.10;99.90;;;;;;5051516;28;19916;-62
2023/05/14 08:57:45;;;;;;;;;;;18.10;99.90;;;;;;5048856;28;19920;-61
2023/05/14 09:00:11;;;;;;;;;;;18.20;99.90;;;;;;5051723;28;20507;-65
2023/05/14 09:02:38;;;;;;;;;;;18.30;99.90;;;;;;5051168;28;19924;-64
2023/05/14 09:05:03;;;;;;;;;;;18.40;99.90;;;;;;5051281;28;20289;-64
2023/05/14 09:07:29;;;;;;;;;;;18.40;99.90;;;;;;5050455;28;19920;-64
2023/05/14 09:09:55;;;;;;;;;;;18.50;99.90;;;;;;5051614;28;20198;-64
2023/05/14 09:12:21;;;;;;;;;;;18.60;99.90;;;;;;5050878;28;19924;-65
2023/05/14 09:14:47;;;;;;;;;;;18.70;99.90;;;;;;5049604;28;20298;-64
2023/05/14 09:17:12;;;;;;;;;;;18.80;99.90;;;;;;5049507;28;20438;-64
2023/05/14 09:19:39;;;;;;;;;;;18.90;99.90;;;;;;5050722;28;19916;-62
2023/05/14 09:22:07;;;;;;;;;;;18.90;99.90;;;;;;5033189;28;19920;-62
2023/05/14 09:24:34;;;;;;;;;;;19.10;99.90;;;;;;5049356;28;20388;-62
2023/05/14 09:27:00;;;;;;;;;;;19.20;99.90;;;;;;5049692;28;19959;-61
2023/05/14 09:29:29;;;;;;;;;;;19.30;99.90;;;;;;5038960;28;19962;-61
2023/05/14 09:31:56;;;;;;;;;;;19.40;99.60;;;;;;5050997;28;19975;-61
2023/05/14 09:34:25;;;;;;;;;;;19.40;99.00;;;;;;5050749;28;20294;-62
2023/05/14 09:36:54;;;;;;;;;;;19.40;99.20;;;;;;5050498;28;20516;-62
2023/05/14 09:39:22;;;;;;;;;;;19.50;98.20;;;;;;5050085;28;20357;-62
2023/05/14 09:41:48;;;;;;;;;;;19.50;97.90;;;;;;5051031;28;19924;-63
2023/05/14 09:44:13;;;;;;;;;;;19.60;97.20;;;;;;5050019;28;19921;-60
2023/05/14 09:46:39;;;;;;;;;;;19.60;97.80;;;;;;5050857;28;20011;-63
2023/05/14 09:49:05;;;;;;;;;;;19.60;97.70;;;;;;5049925;28;19917;-63
2023/05/14 09:51:31;;;;;;;;;;;19.70;97.70;;;;;;5050961;28;19916;-63
2023/05/14 09:53:56;;;;;;;;;;;19.80;97.50;;;;;;5048918;28;20356;-63
2023/05/14 09:56:22;;;;;;;;;;;19.80;97.20;;;;;;5050688;28;19927;-63
2023/05/14 09:58:48;;;;;;;;;;;19.80;96.90;;;;;;5049084;28;19920;-63
2023/05/14 10:01:16;;;;;;;;;;;19.80;96.80;;;;;;5051025;28;19969;-64
2023/05/14 10:03:41;;;;;;;;;;;19.80;97.00;;;;;;5049826;28;19921;-63
2023/05/14 10:06:09;;;;;;;;;;;19.90;96.90;;;;;;5049351;28;20369;-62
2023/05/14 10:08:35;;;;;;;;;;;20.00;96.90;;;;;;5049287;28;20007;-62
2023/05/14 10:11:02;;;;;;;;;;;20.10;96.40;;;;;;5050774;28;19999;-62
2023/05/14 10:13:31;;;;;;;;;;;20.20;96.40;;;;;;5050075;28;19920;-62
2023/05/14 10:16:04;;;;;;;;;;;20.20;96.50;;;;;;5050001;28;19917;-62
2023/05/14 10:18:30;;;;;;;;;;;20.30;96.40;;;;;;5049475;28;20000;-62
2023/05/14 10:21:03;;;;;;;;;;;20.40;96.20;;;;;;5050385;28;19921;-61
2023/05/14 10:23:29;;;;;;;;;;;20.40;95.80;;;;;;5049854;28;19917;-63
2023/05/14 10:25:55;;;;;;;;;;;20.40;95.70;;;;;;5050101;28;19967;-63
2023/05/14 10:28:21;;;;;;;;;;;20.50;95.70;;;;;;5049508;28;20027;-62
2023/05/14 10:30:48;;;;;;;;;;;20.50;95.70;;;;;;5050106;28;19975;-62
2023/05/14 10:33:17;;;;;;;;;;;20.70;95.60;;;;;;5045650;28;20262;-63
2023/05/14 10:35:51;;;;;;;;;;;20.80;95.20;;;;;;5047103;28;19916;-62
2023/05/14 10:38:20;;;;;;;;;;;20.90;95.60;;;;;;5048259;28;19916;-62
2023/05/14 10:40:46;;;;;;;;;;;21.10;94.80;;;;;;5050065;28;19967;-62
2023/05/14 10:43:13;;;;;;;;;;;21.20;94.70;;;;;;5041760;28;19964;-62
2023/05/14 10:45:40;;;;;;;;;;;21.30;94.20;;;;;;5030108;28;19924;-62
2023/05/14 10:48:06;;;;;;;;;;;21.30;94.60;;;;;;5034097;28;20138;-63
2023/05/14 10:50:31;;;;;;;;;;;21.40;94.70;;;;;;5039322;28;20031;-63
2023/05/14 10:52:57;;;;;;;;;;;21.40;93.90;;;;;;5048315;28;20394;-62
2023/05/14 10:55:24;;;;;;;;;;;21.40;94.10;;;;;;5048398;28;20399;-63
2023/05/14 10:57:51;;;;;;;;;;;21.40;94.20;;;;;;5046513;28;20301;-62
2023/05/14 11:00:16;;;;;;;;;;;21.40;93.80;;;;;;5029842;28;20390;-63
2023/05/14 11:02:43;;;;;;;;;;;21.50;94.70;;;;;;5030254;28;20008;-63
2023/05/14 11:05:10;;;;;;;;;;;21.60;94.30;;;;;;5029721;28;19925;-62
2023/05/14 11:07:39;;;;;;;;;;;21.70;93.20;;;;;;5040242;28;20328;-63
2023/05/14 11:10:06;;;;;;;;;;;21.70;93.20;;;;;;5028411;28;20002;-63
2023/05/14 11:12:32;;;;;;;;;;;21.60;92.10;;;;;;5013216;28;19920;-65
2023/05/14 11:14:59;;;;;;;;;;;21.70;91.80;;;;;;5037242;28;19988;-63
2023/05/14 11:17:28;;;;;;;;;;;21.70;91.50;;;;;;5051274;28;19923;-63
2023/05/14 11:19:54;;;;;;;;;;;21.60;92.40;;;;;;5045281;28;20063;-63
2023/05/14 11:22:20;;;;;;;;;;;21.60;91.50;;;;;;5034131;28;20147;-63
2023/05/14 11:24:45;;;;;;;;;;;21.60;92.50;;;;;;5048776;28;19920;-63
2023/05/14 11:27:11;;;;;;;;;;;21.60;92.10;;;;;;5053363;28;20282;-63
2023/05/14 11:29:37;;;;;;;;;;;21.60;91.80;;;;;;5051205;28;19970;-64
2023/05/14 11:32:05;;;;;;;;;;;21.60;91.60;;;;;;5053223;28;19917;-63
2023/05/14 11:34:31;;;;;;;;;;;21.70;91.50;;;;;;5052875;28;19947;-63
2023/05/14 11:36:57;;;;;;;;;;;21.70;90.90;;;;;;5053135;28;19916;-62
2023/05/14 11:39:22;;;;;;;;;;;21.80;91.30;;;;;;5051994;28;19920;-62
2023/05/14 11:41:48;;;;;;;;;;;21.90;90.90;;;;;;5053129;28;19963;-63
2023/05/14 11:44:13;;;;;;;;;;;22.00;91.50;;;;;;5052291;28;19959;-62
2023/05/14 11:46:39;;;;;;;;;;;22.10;91.20;;;;;;5051955;28;19920;-62
2023/05/14 11:49:08;;;;;;;;;;;22.20;90.40;;;;;;5052430;28;19916;-62
2023/05/14 11:51:34;;;;;;;;;;;22.20;90.70;;;;;;5052866;28;19916;-62
2023/05/14 11:54:00;;;;;;;;;;;22.20;90.10;;;;;;5051193;28;20312;-62
2023/05/14 11:56:25;;;;;;;;;;;22.20;90.70;;;;;;5052441;28;19916;-62
2023/05/14 11:58:56;;;;;;;;;;;22.20;90.10;;;;;;5051623;28;20009;-62
2023/05/14 12:01:21;;;;;;;;;;;22.20;90.30;;;;;;5051952;28;20357;-63
2023/05/14 12:03:47;;;;;;;;;;;22.30;90.60;;;;;;5050909;28;20073;-62
2023/05/14 12:06:12;;;;;;;;;;;22.40;90.60;;;;;;5052141;28;19920;-61
2023/05/14 12:08:38;;;;;;;;;;;22.50;90.60;;;;;;5052045;28;19924;-62
2023/05/14 12:11:04;;;;;;;;;;;22.60;89.30;;;;;;5052815;28;19917;-62
2023/05/14 12:13:30;;;;;;;;;;;22.70;87.20;;;;;;5051752;28;19928;-61
2023/05/14 12:15:57;;;;;;;;;;;22.80;90.10;;;;;;5050731;28;19935;-63
2023/05/14 12:18:27;;;;;;;;;;;22.80;87.10;;;;;;5051912;28;19982;-63
2023/05/14 12:20:52;;;;;;;;;;;23.00;89.10;;;;;;5052678;28;20321;-63
2023/05/14 12:23:25;;;;;;;;;;;23.10;87.60;;;;;;5051000;28;20019;-65
2023/05/14 12:25:51;;;;;;;;;;;23.30;86.50;;;;;;5051887;28;19916;-64
2023/05/14 12:28:17;;;;;;;;;;;23.50;86.90;;;;;;5051250;28;19917;-64
2023/05/14 12:30:42;;;;;;;;;;;23.50;87.30;;;;;;5051170;28;19956;-65
2023/05/14 12:33:08;;;;;;;;;;;23.60;83.80;;;;;;5052190;28;19967;-64
2023/05/14 12:35:35;;;;;;;;;;;23.70;81.30;;;;;;5052117;28;19916;-64
2023/05/14 12:38:01;;;;;;;;;;;23.70;80.80;;;;;;5049780;28;19948;-64
2023/05/14 12:40:26;;;;;;;;;;;23.60;79.70;;;;;;5051783;28;19970;-64
2023/05/14 12:42:52;;;;;;;;;;;23.60;79.70;;;;;;5051672;28;19916;-64
2023/05/14 12:45:18;;;;;;;;;;;23.60;79.30;;;;;;5051616;28;19970;-64
2023/05/14 12:47:44;;;;;;;;;;;23.60;78.20;;;;;;5050987;28;20480;-64
2023/05/14 12:50:09;;;;;;;;;;;23.60;81.00;;;;;;5050400;28;20324;-64
2023/05/14 12:52:35;;;;;;;;;;;23.70;80.90;;;;;;5051312;28;20015;-63
2023/05/14 12:55:00;;;;;;;;;;;23.70;80.70;;;;;;5047266;28;20435;-63
2023/05/14 12:57:27;;;;;;;;;;;23.80;81.90;;;;;;5033041;28;19978;-63
2023/05/14 12:59:53;;;;;;;;;;;23.80;80.50;;;;;;5030588;28;19917;-63
2023/05/14 13:02:18;;;;;;;;;;;23.80;79.10;;;;;;5052034;28;19917;-63
2023/05/14 13:04:44;;;;;;;;;;;23.80;78.20;;;;;;5051374;28;19916;-63
2023/05/14 13:07:10;;;;;;;;;;;23.80;78.50;;;;;;5049887;28;19917;-63
2023/05/14 13:09:35;;;;;;;;;;;23.90;78.40;;;;;;5051367;28;20004;-63
2023/05/14 13:12:01;;;;;;;;;;;23.90;77.90;;;;;;5035495;28;20670;-62
2023/05/14 13:14:26;;;;;;;;;;;23.90;77.90;;;;;;5040529;28;20008;-63
2023/05/14 13:16:52;;;;;;;;;;;23.90;75.60;;;;;;5049319;28;19948;-63
2023/05/14 13:19:17;;;;;;;;;;;23.90;75.80;;;;;;5050970;28;19921;-64
2023/05/14 13:21:43;;;;;;;;;;;23.80;76.40;;;;;;5051180;28;19923;-63
2023/05/14 13:24:11;;;;;;;;;;;23.80;77.10;;;;;;5051648;28;19917;-63
2023/05/14 13:26:37;;;;;;;;;;;23.80;78.30;;;;;;5048610;28;19935;-63
2023/05/14 13:29:02;;;;;;;;;;;23.80;76.50;;;;;;5050705;28;19917;-63
2023/05/14 13:31:28;;;;;;;;;;;23.80;75.60;;;;;;5049761;28;19921;-64
2023/05/14 13:33:53;;;;;;;;;;;23.70;75.40;;;;;;5049699;28;19930;-63
2023/05/14 13:36:19;;;;;;;;;;;23.70;76.30;;;;;;5049333;28;20420;-64
2023/05/14 13:38:45;;;;;;;;;;;23.70;76.30;;;;;;5048300;28;20369;-63
2023/05/14 13:41:10;;;;;;;;;;;23.70;77.40;;;;;;5049128;28;19940;-64
2023/05/14 13:43:36;;;;;;;;;;;23.60;76.40;;;;;;5049201;28;19916;-63
2023/05/14 13:46:02;;;;;;;;;;;23.60;77.60;;;;;;5050480;28;19962;-63
2023/05/14 13:48:28;;;;;;;;;;;23.60;78.10;;;;;;5051765;28;19916;-64
2023/05/14 13:50:53;;;;;;;;;;;23.50;77.00;;;;;;5056975;28;20331;-64
2023/05/14 13:53:19;;;;;;;;;;;23.50;76.70;;;;;;5051776;28;19971;-64
2023/05/14 13:55:45;;;;;;;;;;;23.50;77.30;;;;;;5049433;28;19970;-64
2023/05/14 13:58:11;;;;;;;;;;;23.50;76.50;;;;;;5049160;28;20354;-64
2023/05/14 14:00:36;;;;;;;;;;;23.40;72.20;;;;;;5050430;28;19917;-64
2023/05/14 14:03:02;;;;;;;;;;;23.30;73.10;;;;;;5050091;28;19986;-64
2023/05/14 14:05:28;;;;;;;;;;;23.20;71.70;;;;;;5049011;28;19924;-66
2023/05/14 14:07:54;;;;;;;;;;;23.20;73.90;;;;;;5049299;28;19920;-66
2023/05/14 14:10:22;;;;;;;;;;;23.20;73.10;;;;;;5032023;28;19923;-66